sensor_id;sensor_type;location;lat;lon;timestamp;P1;durP1;ratioP1;P2;durP2;ratioP2
73729;SDS011;62036;48.128;16.458;2023-02-28T00:01:06;6.28;;;4.40;;
73729;SDS011;62036;48.128;16.458;2023-02-28T00:03:33;8.30;;;4.43;;
73729;SDS011;62036;48.128;16.458;2023-02-28T00:06:00;11.38;;;5.43;;
73729;SDS011;62036;48.128;16.458;2023-02-28T00:08:27;8.15;;;4.72;;
73729;SDS011;62036;48.128;16.458;2023-02-28T00:13:19;6.53;;;4.00;;
73729;SDS011;62036;48.128;16.458;2023-02-28T00:15:45;7.28;;;4.55;;
73729;SDS011;62036;48.128;16.458;2023-02-28T00:18:11;10.48;;;4.60;;
73729;SDS011;62036;48.128;16.458;2023-02-28T00:20:38;8.90;;;5.78;;
73729;SDS011;62036;48.128;16.458;2023-02-28T00:23:04;7.93;;;4.80;;
73729;SDS011;62036;48.128;16.458;2023-02-28T00:27:56;12.63;;;4.53;;
73729;SDS011;62036;48.128;16.458;2023-02-28T00:30:22;10.52;;;4.72;;
73729;SDS011;62036;48.128;16.458;2023-02-28T00:32:49;6.10;;;4.82;;
73729;SDS011;62036;48.128;16.458;2023-02-28T00:35:15;7.22;;;4.55;;
73729;SDS011;62036;48.128;16.458;2023-02-28T00:40:08;6.63;;;3.47;;
73729;SDS011;62036;48.128;16.458;2023-02-28T00:42:35;7.40;;;3.58;;
73729;SDS011;62036;48.128;16.458;2023-02-28T00:47:28;7.05;;;3.80;;
73729;SDS011;62036;48.128;16.458;2023-02-28T00:49:54;9.55;;;5.10;;
73729;SDS011;62036;48.128;16.458;2023-02-28T00:52:20;8.65;;;3.83;;
73729;SDS011;62036;48.128;16.458;2023-02-28T00:54:46;8.32;;;4.93;;
73729;SDS011;62036;48.128;16.458;2023-02-28T00:57:12;8.38;;;5.03;;
73729;SDS011;62036;48.128;16.458;2023-02-28T00:59:38;9.73;;;5.05;;
73729;SDS011;62036;48.128;16.458;2023-02-28T01:02:04;8.82;;;5.63;;
73729;SDS011;62036;48.128;16.458;2023-02-28T01:04:30;9.13;;;5.00;;
73729;SDS011;62036;48.128;16.458;2023-02-28T01:06:56;10.05;;;4.82;;
73729;SDS011;62036;48.128;16.458;2023-02-28T01:09:22;8.40;;;4.70;;
73729;SDS011;62036;48.128;16.458;2023-02-28T01:11:48;10.35;;;5.05;;
73729;SDS011;62036;48.128;16.458;2023-02-28T01:16:41;7.82;;;4.53;;
73729;SDS011;62036;48.128;16.458;2023-02-28T01:19:07;8.35;;;4.10;;
73729;SDS011;62036;48.128;16.458;2023-02-28T01:24:00;6.18;;;4.65;;
73729;SDS011;62036;48.128;16.458;2023-02-28T01:26:26;12.80;;;6.28;;
73729;SDS011;62036;48.128;16.458;2023-02-28T01:28:52;10.23;;;4.32;;
73729;SDS011;62036;48.128;16.458;2023-02-28T01:31:19;10.68;;;5.30;;
73729;SDS011;62036;48.128;16.458;2023-02-28T01:33:45;9.68;;;5.68;;
73729;SDS011;62036;48.128;16.458;2023-02-28T01:36:18;9.30;;;5.15;;
73729;SDS011;62036;48.128;16.458;2023-02-28T01:38:44;8.27;;;4.45;;
73729;SDS011;62036;48.128;16.458;2023-02-28T01:46:08;9.10;;;4.85;;
73729;SDS011;62036;48.128;16.458;2023-02-28T01:48:35;8.55;;;5.07;;
73729;SDS011;62036;48.128;16.458;2023-02-28T01:51:04;9.82;;;5.25;;
73729;SDS011;62036;48.128;16.458;2023-02-28T01:53:36;11.57;;;5.65;;
73729;SDS011;62036;48.128;16.458;2023-02-28T01:58:29;10.73;;;5.00;;
73729;SDS011;62036;48.128;16.458;2023-02-28T02:00:55;9.13;;;4.47;;
73729;SDS011;62036;48.128;16.458;2023-02-28T02:03:22;9.93;;;4.95;;
73729;SDS011;62036;48.128;16.458;2023-02-28T02:05:49;9.43;;;4.88;;
73729;SDS011;62036;48.128;16.458;2023-02-28T02:08:16;8.77;;;5.13;;
73729;SDS011;62036;48.128;16.458;2023-02-28T02:10:50;12.05;;;5.22;;
73729;SDS011;62036;48.128;16.458;2023-02-28T02:16:03;11.13;;;4.97;;
73729;SDS011;62036;48.128;16.458;2023-02-28T02:39:31;10.80;;;5.45;;
73729;SDS011;62036;48.128;16.458;2023-02-28T02:42:00;10.00;;;5.32;;
73729;SDS011;62036;48.128;16.458;2023-02-28T02:44:28;8.38;;;5.45;;
73729;SDS011;62036;48.128;16.458;2023-02-28T02:47:06;8.88;;;4.82;;
73729;SDS011;62036;48.128;16.458;2023-02-28T02:49:35;9.60;;;5.15;;
73729;SDS011;62036;48.128;16.458;2023-02-28T02:52:03;8.80;;;4.70;;
73729;SDS011;62036;48.128;16.458;2023-02-28T02:54:30;9.13;;;5.13;;
73729;SDS011;62036;48.128;16.458;2023-02-28T02:57:00;10.35;;;4.57;;
73729;SDS011;62036;48.128;16.458;2023-02-28T02:59:27;9.50;;;5.03;;
73729;SDS011;62036;48.128;16.458;2023-02-28T03:01:58;9.45;;;5.25;;
73729;SDS011;62036;48.128;16.458;2023-02-28T03:04:26;11.20;;;5.38;;
73729;SDS011;62036;48.128;16.458;2023-02-28T03:06:53;10.75;;;4.72;;
73729;SDS011;62036;48.128;16.458;2023-02-28T03:09:20;10.65;;;5.60;;
73729;SDS011;62036;48.128;16.458;2023-02-28T03:11:46;11.68;;;5.15;;
73729;SDS011;62036;48.128;16.458;2023-02-28T03:14:25;7.32;;;5.32;;
73729;SDS011;62036;48.128;16.458;2023-02-28T03:17:12;11.70;;;5.85;;
73729;SDS011;62036;48.128;16.458;2023-02-28T03:20:17;11.07;;;5.22;;
73729;SDS011;62036;48.128;16.458;2023-02-28T03:27:46;9.77;;;5.55;;
73729;SDS011;62036;48.128;16.458;2023-02-28T03:32:55;12.07;;;5.75;;
73729;SDS011;62036;48.128;16.458;2023-02-28T03:35:27;8.95;;;4.90;;
73729;SDS011;62036;48.128;16.458;2023-02-28T03:37:58;11.00;;;5.20;;
73729;SDS011;62036;48.128;16.458;2023-02-28T03:40:27;11.07;;;5.95;;
73729;SDS011;62036;48.128;16.458;2023-02-28T03:42:57;9.27;;;5.78;;
73729;SDS011;62036;48.128;16.458;2023-02-28T03:45:27;9.63;;;5.00;;
73729;SDS011;62036;48.128;16.458;2023-02-28T03:48:01;12.32;;;6.68;;
73729;SDS011;62036;48.128;16.458;2023-02-28T03:50:34;11.05;;;5.75;;
73729;SDS011;62036;48.128;16.458;2023-02-28T03:55:35;8.25;;;5.03;;
73729;SDS011;62036;48.128;16.458;2023-02-28T03:58:19;8.80;;;6.10;;
73729;SDS011;62036;48.128;16.458;2023-02-28T04:00:48;9.55;;;4.70;;
73729;SDS011;62036;48.128;16.458;2023-02-28T04:03:15;8.52;;;5.05;;
73729;SDS011;62036;48.128;16.458;2023-02-28T04:05:46;9.38;;;5.53;;
73729;SDS011;62036;48.128;16.458;2023-02-28T04:08:13;9.55;;;5.65;;
73729;SDS011;62036;48.128;16.458;2023-02-28T04:13:05;11.70;;;5.70;;
73729;SDS011;62036;48.128;16.458;2023-02-28T04:17:57;11.60;;;5.03;;
73729;SDS011;62036;48.128;16.458;2023-02-28T04:22:49;9.80;;;5.03;;
73729;SDS011;62036;48.128;16.458;2023-02-28T04:27:41;9.50;;;5.13;;
73729;SDS011;62036;48.128;16.458;2023-02-28T04:30:09;10.27;;;5.43;;
73729;SDS011;62036;48.128;16.458;2023-02-28T04:32:35;12.23;;;6.10;;
73729;SDS011;62036;48.128;16.458;2023-02-28T04:37:27;11.40;;;5.38;;
73729;SDS011;62036;48.128;16.458;2023-02-28T04:39:53;11.15;;;4.90;;
73729;SDS011;62036;48.128;16.458;2023-02-28T04:42:19;13.05;;;5.05;;
73729;SDS011;62036;48.128;16.458;2023-02-28T04:47:12;10.35;;;5.55;;
73729;SDS011;62036;48.128;16.458;2023-02-28T04:49:38;11.02;;;5.68;;
73729;SDS011;62036;48.128;16.458;2023-02-28T04:52:06;12.27;;;6.30;;
73729;SDS011;62036;48.128;16.458;2023-02-28T04:54:32;14.68;;;7.50;;
73729;SDS011;62036;48.128;16.458;2023-02-28T04:59:24;18.88;;;10.00;;
73729;SDS011;62036;48.128;16.458;2023-02-28T05:04:16;14.63;;;8.73;;
73729;SDS011;62036;48.128;16.458;2023-02-28T05:09:08;16.40;;;7.78;;
73729;SDS011;62036;48.128;16.458;2023-02-28T05:11:36;14.90;;;7.68;;
73729;SDS011;62036;48.128;16.458;2023-02-28T05:14:04;18.70;;;8.32;;
73729;SDS011;62036;48.128;16.458;2023-02-28T05:16:31;17.20;;;8.82;;
73729;SDS011;62036;48.128;16.458;2023-02-28T05:18:57;15.30;;;9.05;;
73729;SDS011;62036;48.128;16.458;2023-02-28T05:21:24;20.45;;;9.02;;
73729;SDS011;62036;48.128;16.458;2023-02-28T05:23:51;14.55;;;8.27;;
73729;SDS011;62036;48.128;16.458;2023-02-28T05:26:17;14.80;;;9.05;;
73729;SDS011;62036;48.128;16.458;2023-02-28T05:28:43;16.25;;;8.63;;
73729;SDS011;62036;48.128;16.458;2023-02-28T05:31:10;10.77;;;5.40;;
73729;SDS011;62036;48.128;16.458;2023-02-28T05:33:36;10.43;;;7.20;;
73729;SDS011;62036;48.128;16.458;2023-02-28T05:36:02;9.57;;;5.75;;
73729;SDS011;62036;48.128;16.458;2023-02-28T05:38:28;10.57;;;5.63;;
73729;SDS011;62036;48.128;16.458;2023-02-28T05:43:21;9.63;;;6.10;;
73729;SDS011;62036;48.128;16.458;2023-02-28T05:48:13;6.55;;;4.60;;
73729;SDS011;62036;48.128;16.458;2023-02-28T05:50:39;12.40;;;6.22;;
73729;SDS011;62036;48.128;16.458;2023-02-28T05:53:05;11.38;;;6.28;;
73729;SDS011;62036;48.128;16.458;2023-02-28T05:55:31;10.18;;;5.53;;
73729;SDS011;62036;48.128;16.458;2023-02-28T05:57:57;11.38;;;6.15;;
73729;SDS011;62036;48.128;16.458;2023-02-28T06:02:49;11.82;;;6.15;;
73729;SDS011;62036;48.128;16.458;2023-02-28T06:05:17;12.27;;;6.40;;
73729;SDS011;62036;48.128;16.458;2023-02-28T06:07:43;12.13;;;6.60;;
73729;SDS011;62036;48.128;16.458;2023-02-28T06:10:10;13.85;;;6.97;;
73729;SDS011;62036;48.128;16.458;2023-02-28T06:12:36;9.60;;;6.45;;
73729;SDS011;62036;48.128;16.458;2023-02-28T06:15:02;12.75;;;6.40;;
73729;SDS011;62036;48.128;16.458;2023-02-28T06:17:28;11.95;;;5.78;;
73729;SDS011;62036;48.128;16.458;2023-02-28T06:22:20;11.77;;;6.35;;
73729;SDS011;62036;48.128;16.458;2023-02-28T06:27:12;12.15;;;6.80;;
73729;SDS011;62036;48.128;16.458;2023-02-28T06:29:38;13.30;;;7.68;;
73729;SDS011;62036;48.128;16.458;2023-02-28T06:32:05;11.98;;;7.13;;
73729;SDS011;62036;48.128;16.458;2023-02-28T06:34:31;13.82;;;6.97;;
73729;SDS011;62036;48.128;16.458;2023-02-28T06:36:59;15.13;;;7.55;;
73729;SDS011;62036;48.128;16.458;2023-02-28T06:39:29;18.70;;;9.02;;
73729;SDS011;62036;48.128;16.458;2023-02-28T06:41:55;17.80;;;7.93;;
73729;SDS011;62036;48.128;16.458;2023-02-28T06:44:21;15.05;;;7.93;;
73729;SDS011;62036;48.128;16.458;2023-02-28T06:46:48;12.30;;;6.63;;
73729;SDS011;62036;48.128;16.458;2023-02-28T06:49:14;13.07;;;7.78;;
73729;SDS011;62036;48.128;16.458;2023-02-28T06:51:42;12.23;;;7.43;;
73729;SDS011;62036;48.128;16.458;2023-02-28T06:54:11;14.07;;;6.65;;
73729;SDS011;62036;48.128;16.458;2023-02-28T06:56:37;12.05;;;7.30;;
73729;SDS011;62036;48.128;16.458;2023-02-28T06:59:03;15.23;;;7.90;;
73729;SDS011;62036;48.128;16.458;2023-02-28T07:01:30;11.43;;;6.13;;
73729;SDS011;62036;48.128;16.458;2023-02-28T07:03:59;13.32;;;7.28;;
73729;SDS011;62036;48.128;16.458;2023-02-28T07:06:25;12.35;;;7.28;;
73729;SDS011;62036;48.128;16.458;2023-02-28T07:08:52;14.13;;;8.00;;
73729;SDS011;62036;48.128;16.458;2023-02-28T07:11:19;16.33;;;7.18;;
73729;SDS011;62036;48.128;16.458;2023-02-28T07:13:46;13.20;;;7.65;;
73729;SDS011;62036;48.128;16.458;2023-02-28T07:16:12;12.52;;;7.15;;
73729;SDS011;62036;48.128;16.458;2023-02-28T07:18:39;13.52;;;7.63;;
73729;SDS011;62036;48.128;16.458;2023-02-28T07:23:31;13.13;;;7.10;;
73729;SDS011;62036;48.128;16.458;2023-02-28T07:25:57;12.93;;;6.60;;
73729;SDS011;62036;48.128;16.458;2023-02-28T07:28:23;15.93;;;8.38;;
73729;SDS011;62036;48.128;16.458;2023-02-28T07:30:50;13.32;;;6.97;;
73729;SDS011;62036;48.128;16.458;2023-02-28T07:33:16;14.57;;;8.02;;
73729;SDS011;62036;48.128;16.458;2023-02-28T07:35:42;16.60;;;9.20;;
73729;SDS011;62036;48.128;16.458;2023-02-28T07:38:08;12.70;;;8.30;;
73729;SDS011;62036;48.128;16.458;2023-02-28T07:40:35;12.43;;;7.10;;
73729;SDS011;62036;48.128;16.458;2023-02-28T07:43:01;15.77;;;8.75;;
73729;SDS011;62036;48.128;16.458;2023-02-28T07:45:28;12.48;;;7.53;;
73729;SDS011;62036;48.128;16.458;2023-02-28T07:47:54;14.07;;;8.10;;
73729;SDS011;62036;48.128;16.458;2023-02-28T07:50:20;13.85;;;8.05;;
73729;SDS011;62036;48.128;16.458;2023-02-28T07:55:12;12.88;;;7.43;;
73729;SDS011;62036;48.128;16.458;2023-02-28T07:57:39;11.35;;;6.40;;
73729;SDS011;62036;48.128;16.458;2023-02-28T08:00:07;14.82;;;8.10;;
73729;SDS011;62036;48.128;16.458;2023-02-28T08:02:35;14.20;;;7.75;;
73729;SDS011;62036;48.128;16.458;2023-02-28T08:05:01;14.80;;;7.55;;
73729;SDS011;62036;48.128;16.458;2023-02-28T08:07:27;12.98;;;6.63;;
73729;SDS011;62036;48.128;16.458;2023-02-28T08:12:19;9.93;;;6.72;;
73729;SDS011;62036;48.128;16.458;2023-02-28T08:17:11;12.93;;;7.82;;
73729;SDS011;62036;48.128;16.458;2023-02-28T08:19:37;12.13;;;7.38;;
73729;SDS011;62036;48.128;16.458;2023-02-28T08:22:03;12.50;;;7.00;;
73729;SDS011;62036;48.128;16.458;2023-02-28T08:26:55;14.07;;;7.30;;
73729;SDS011;62036;48.128;16.458;2023-02-28T08:29:21;14.70;;;6.97;;
73729;SDS011;62036;48.128;16.458;2023-02-28T08:31:47;12.93;;;7.53;;
73729;SDS011;62036;48.128;16.458;2023-02-28T08:34:14;15.35;;;7.93;;
73729;SDS011;62036;48.128;16.458;2023-02-28T08:36:40;13.43;;;8.32;;
73729;SDS011;62036;48.128;16.458;2023-02-28T08:39:08;14.25;;;7.78;;
73729;SDS011;62036;48.128;16.458;2023-02-28T08:41:34;13.73;;;8.32;;
73729;SDS011;62036;48.128;16.458;2023-02-28T08:44:02;14.38;;;7.43;;
73729;SDS011;62036;48.128;16.458;2023-02-28T08:46:28;17.20;;;8.38;;
73729;SDS011;62036;48.128;16.458;2023-02-28T08:48:55;14.02;;;8.23;;
73729;SDS011;62036;48.128;16.458;2023-02-28T08:51:24;13.88;;;7.68;;
73729;SDS011;62036;48.128;16.458;2023-02-28T08:53:53;54.92;;;22.83;;
73729;SDS011;62036;48.128;16.458;2023-02-28T08:56:19;32.40;;;14.50;;
73729;SDS011;62036;48.128;16.458;2023-02-28T08:58:46;19.02;;;9.57;;
73729;SDS011;62036;48.128;16.458;2023-02-28T09:01:13;16.40;;;8.55;;
73729;SDS011;62036;48.128;16.458;2023-02-28T09:03:40;15.73;;;7.43;;
73729;SDS011;62036;48.128;16.458;2023-02-28T09:06:07;13.50;;;8.15;;
73729;SDS011;62036;48.128;16.458;2023-02-28T09:08:33;15.10;;;9.18;;
73729;SDS011;62036;48.128;16.458;2023-02-28T09:10:59;15.43;;;9.07;;
73729;SDS011;62036;48.128;16.458;2023-02-28T09:13:26;16.23;;;7.07;;
73729;SDS011;62036;48.128;16.458;2023-02-28T09:15:53;16.15;;;8.45;;
73729;SDS011;62036;48.128;16.458;2023-02-28T09:18:19;18.63;;;9.35;;
73729;SDS011;62036;48.128;16.458;2023-02-28T09:20:45;19.45;;;10.15;;
73729;SDS011;62036;48.128;16.458;2023-02-28T09:23:12;17.83;;;8.30;;
73729;SDS011;62036;48.128;16.458;2023-02-28T09:25:40;14.05;;;8.15;;
73729;SDS011;62036;48.128;16.458;2023-02-28T09:28:10;14.23;;;8.05;;
73729;SDS011;62036;48.128;16.458;2023-02-28T09:30:36;15.18;;;8.13;;
73729;SDS011;62036;48.128;16.458;2023-02-28T09:33:02;13.85;;;7.50;;
73729;SDS011;62036;48.128;16.458;2023-02-28T09:35:29;18.40;;;9.10;;
73729;SDS011;62036;48.128;16.458;2023-02-28T09:37:55;16.45;;;8.60;;
73729;SDS011;62036;48.128;16.458;2023-02-28T09:40:23;13.63;;;7.65;;
73729;SDS011;62036;48.128;16.458;2023-02-28T09:42:50;17.52;;;8.13;;
73729;SDS011;62036;48.128;16.458;2023-02-28T09:45:28;14.85;;;6.90;;
73729;SDS011;62036;48.128;16.458;2023-02-28T09:47:56;18.15;;;9.70;;
73729;SDS011;62036;48.128;16.458;2023-02-28T09:50:34;16.63;;;8.68;;
73729;SDS011;62036;48.128;16.458;2023-02-28T09:53:02;12.30;;;7.13;;
73729;SDS011;62036;48.128;16.458;2023-02-28T09:58:05;13.68;;;8.02;;
73729;SDS011;62036;48.128;16.458;2023-02-28T10:00:32;14.95;;;8.50;;
73729;SDS011;62036;48.128;16.458;2023-02-28T10:06:29;15.48;;;8.40;;
73729;SDS011;62036;48.128;16.458;2023-02-28T10:11:28;18.17;;;8.20;;
73729;SDS011;62036;48.128;16.458;2023-02-28T10:16:45;13.75;;;7.07;;
73729;SDS011;62036;48.128;16.458;2023-02-28T10:21:59;12.00;;;7.15;;
73729;SDS011;62036;48.128;16.458;2023-02-28T10:24:35;12.20;;;6.30;;
73729;SDS011;62036;48.128;16.458;2023-02-28T10:27:14;14.07;;;7.70;;
73729;SDS011;62036;48.128;16.458;2023-02-28T10:29:45;13.18;;;7.63;;
73729;SDS011;62036;48.128;16.458;2023-02-28T10:32:14;13.50;;;7.63;;
73729;SDS011;62036;48.128;16.458;2023-02-28T10:34:40;15.82;;;7.57;;
73729;SDS011;62036;48.128;16.458;2023-02-28T10:37:07;11.50;;;6.93;;
73729;SDS011;62036;48.128;16.458;2023-02-28T10:39:36;13.18;;;7.80;;
73729;SDS011;62036;48.128;16.458;2023-02-28T10:42:03;15.68;;;8.05;;
73729;SDS011;62036;48.128;16.458;2023-02-28T10:44:29;12.15;;;6.80;;
73729;SDS011;62036;48.128;16.458;2023-02-28T10:46:55;14.88;;;6.97;;
73729;SDS011;62036;48.128;16.458;2023-02-28T10:51:49;13.48;;;7.78;;
73729;SDS011;62036;48.128;16.458;2023-02-28T10:54:16;11.23;;;7.10;;
73729;SDS011;62036;48.128;16.458;2023-02-28T10:56:43;12.10;;;7.88;;
73729;SDS011;62036;48.128;16.458;2023-02-28T10:59:29;11.93;;;7.25;;
73729;SDS011;62036;48.128;16.458;2023-02-28T11:01:55;15.13;;;7.90;;
73729;SDS011;62036;48.128;16.458;2023-02-28T11:06:58;13.48;;;8.73;;
73729;SDS011;62036;48.128;16.458;2023-02-28T11:09:32;14.85;;;7.65;;
73729;SDS011;62036;48.128;16.458;2023-02-28T11:12:00;12.63;;;7.20;;
73729;SDS011;62036;48.128;16.458;2023-02-28T11:14:27;15.35;;;8.57;;
73729;SDS011;62036;48.128;16.458;2023-02-28T11:16:54;13.15;;;7.07;;
73729;SDS011;62036;48.128;16.458;2023-02-28T11:19:24;17.92;;;9.50;;
73729;SDS011;62036;48.128;16.458;2023-02-28T11:21:53;17.23;;;9.30;;
73729;SDS011;62036;48.128;16.458;2023-02-28T11:24:27;20.13;;;8.98;;
73729;SDS011;62036;48.128;16.458;2023-02-28T11:26:54;22.90;;;9.13;;
73729;SDS011;62036;48.128;16.458;2023-02-28T11:29:24;25.20;;;12.00;;
73729;SDS011;62036;48.128;16.458;2023-02-28T11:34:29;17.67;;;8.07;;
73729;SDS011;62036;48.128;16.458;2023-02-28T11:36:55;13.60;;;7.35;;
73729;SDS011;62036;48.128;16.458;2023-02-28T11:39:22;18.38;;;9.98;;
73729;SDS011;62036;48.128;16.458;2023-02-28T11:42:11;14.82;;;8.93;;
73729;SDS011;62036;48.128;16.458;2023-02-28T12:00:00;11.43;;;6.78;;
73729;SDS011;62036;48.128;16.458;2023-02-28T12:13:38;11.30;;;6.18;;
73729;SDS011;62036;48.128;16.458;2023-02-28T12:26:39;10.38;;;5.85;;
73729;SDS011;62036;48.128;16.458;2023-02-28T12:31:35;10.93;;;6.70;;
73729;SDS011;62036;48.128;16.458;2023-02-28T12:34:16;9.70;;;6.22;;
73729;SDS011;62036;48.128;16.458;2023-02-28T12:36:45;12.30;;;5.43;;
73729;SDS011;62036;48.128;16.458;2023-02-28T12:39:15;9.43;;;5.95;;
73729;SDS011;62036;48.128;16.458;2023-02-28T12:41:53;9.30;;;5.30;;
73729;SDS011;62036;48.128;16.458;2023-02-28T12:46:49;8.32;;;4.90;;
73729;SDS011;62036;48.128;16.458;2023-02-28T12:49:21;9.95;;;5.45;;
73729;SDS011;62036;48.128;16.458;2023-02-28T12:51:49;10.57;;;4.90;;
73729;SDS011;62036;48.128;16.458;2023-02-28T12:55:19;9.55;;;6.32;;
73729;SDS011;62036;48.128;16.458;2023-02-28T12:59:57;8.15;;;5.22;;
73729;SDS011;62036;48.128;16.458;2023-02-28T13:07:49;10.30;;;5.78;;
73729;SDS011;62036;48.128;16.458;2023-02-28T13:10:23;9.25;;;4.68;;
73729;SDS011;62036;48.128;16.458;2023-02-28T13:12:50;8.90;;;4.47;;
73729;SDS011;62036;48.128;16.458;2023-02-28T13:15:18;7.90;;;5.10;;
73729;SDS011;62036;48.128;16.458;2023-02-28T13:17:54;9.55;;;5.60;;
73729;SDS011;62036;48.128;16.458;2023-02-28T13:20:21;8.85;;;5.35;;
73729;SDS011;62036;48.128;16.458;2023-02-28T13:22:49;7.38;;;4.75;;
73729;SDS011;62036;48.128;16.458;2023-02-28T13:27:52;8.35;;;4.90;;
73729;SDS011;62036;48.128;16.458;2023-02-28T13:36:07;9.63;;;5.45;;
73729;SDS011;62036;48.128;16.458;2023-02-28T13:38:35;8.65;;;4.35;;
73729;SDS011;62036;48.128;16.458;2023-02-28T13:44:13;8.40;;;5.10;;
73729;SDS011;62036;48.128;16.458;2023-02-28T13:59:22;17.55;;;7.05;;
73729;SDS011;62036;48.128;16.458;2023-02-28T14:04:27;22.73;;;9.63;;
73729;SDS011;62036;48.128;16.458;2023-02-28T14:06:56;30.35;;;12.48;;
73729;SDS011;62036;48.128;16.458;2023-02-28T14:09:24;28.80;;;10.93;;
73729;SDS011;62036;48.128;16.458;2023-02-28T14:11:51;30.63;;;12.73;;
73729;SDS011;62036;48.128;16.458;2023-02-28T14:17:02;44.75;;;17.35;;
73729;SDS011;62036;48.128;16.458;2023-02-28T14:19:30;34.40;;;13.40;;
73729;SDS011;62036;48.128;16.458;2023-02-28T14:34:54;14.93;;;8.68;;
73729;SDS011;62036;48.128;16.458;2023-02-28T14:37:28;12.85;;;7.68;;
73729;SDS011;62036;48.128;16.458;2023-02-28T14:39:55;17.17;;;8.80;;
73729;SDS011;62036;48.128;16.458;2023-02-28T14:42:46;9.82;;;6.40;;
73729;SDS011;62036;48.128;16.458;2023-02-28T14:45:17;7.88;;;4.90;;
73729;SDS011;62036;48.128;16.458;2023-02-28T14:47:43;15.73;;;8.52;;
73729;SDS011;62036;48.128;16.458;2023-02-28T14:50:20;18.05;;;10.57;;
73729;SDS011;62036;48.128;16.458;2023-02-28T14:52:47;17.35;;;8.02;;
73729;SDS011;62036;48.128;16.458;2023-02-28T14:55:14;16.02;;;9.82;;
73729;SDS011;62036;48.128;16.458;2023-02-28T14:57:51;13.82;;;9.68;;
73729;SDS011;62036;48.128;16.458;2023-02-28T15:00:31;10.90;;;7.45;;
73729;SDS011;62036;48.128;16.458;2023-02-28T15:02:58;13.40;;;12.00;;
73729;SDS011;62036;48.128;16.458;2023-02-28T15:05:32;9.52;;;7.30;;
73729;SDS011;62036;48.128;16.458;2023-02-28T15:08:11;15.38;;;8.20;;
73729;SDS011;62036;48.128;16.458;2023-02-28T15:10:39;13.38;;;8.48;;
73729;SDS011;62036;48.128;16.458;2023-02-28T15:13:11;13.48;;;8.07;;
73729;SDS011;62036;48.128;16.458;2023-02-28T15:18:04;9.15;;;6.47;;
73729;SDS011;62036;48.128;16.458;2023-02-28T15:20:31;10.77;;;7.57;;
73729;SDS011;62036;48.128;16.458;2023-02-28T15:22:58;11.75;;;7.32;;
73729;SDS011;62036;48.128;16.458;2023-02-28T15:25:24;12.15;;;8.23;;
73729;SDS011;62036;48.128;16.458;2023-02-28T15:27:54;19.08;;;12.43;;
73729;SDS011;62036;48.128;16.458;2023-02-28T15:30:29;10.35;;;7.30;;
73729;SDS011;62036;48.128;16.458;2023-02-28T15:33:03;10.40;;;7.55;;
73729;SDS011;62036;48.128;16.458;2023-02-28T15:35:31;11.35;;;7.60;;
73729;SDS011;62036;48.128;16.458;2023-02-28T15:38:21;10.90;;;7.18;;
73729;SDS011;62036;48.128;16.458;2023-02-28T15:40:45;11.77;;;7.90;;
73729;SDS011;62036;48.128;16.458;2023-02-28T15:46:13;9.85;;;6.00;;
73729;SDS011;62036;48.128;16.458;2023-02-28T15:48:56;9.65;;;6.97;;
73729;SDS011;62036;48.128;16.458;2023-02-28T15:51:23;12.02;;;7.65;;
73729;SDS011;62036;48.128;16.458;2023-02-28T15:53:57;11.73;;;7.20;;
73729;SDS011;62036;48.128;16.458;2023-02-28T15:56:26;10.38;;;7.05;;
73729;SDS011;62036;48.128;16.458;2023-02-28T15:58:56;8.75;;;6.03;;
73729;SDS011;62036;48.128;16.458;2023-02-28T16:01:25;11.30;;;6.80;;
73729;SDS011;62036;48.128;16.458;2023-02-28T16:03:54;11.02;;;6.82;;
73729;SDS011;62036;48.128;16.458;2023-02-28T16:08:47;10.73;;;6.57;;
73729;SDS011;62036;48.128;16.458;2023-02-28T16:11:16;10.85;;;7.55;;
73729;SDS011;62036;48.128;16.458;2023-02-28T16:13:42;10.18;;;7.25;;
73729;SDS011;62036;48.128;16.458;2023-02-28T16:16:08;10.82;;;7.32;;
73729;SDS011;62036;48.128;16.458;2023-02-28T16:18:34;11.52;;;7.13;;
73729;SDS011;62036;48.128;16.458;2023-02-28T16:21:00;19.73;;;10.32;;
73729;SDS011;62036;48.128;16.458;2023-02-28T16:23:26;18.15;;;10.23;;
73729;SDS011;62036;48.128;16.458;2023-02-28T16:25:52;17.65;;;9.98;;
73729;SDS011;62036;48.128;16.458;2023-02-28T16:30:44;28.77;;;11.25;;
73729;SDS011;62036;48.128;16.458;2023-02-28T16:33:10;29.30;;;12.43;;
73729;SDS011;62036;48.128;16.458;2023-02-28T16:35:36;28.88;;;13.02;;
73729;SDS011;62036;48.128;16.458;2023-02-28T16:38:02;35.65;;;13.88;;
73729;SDS011;62036;48.128;16.458;2023-02-28T16:40:28;33.10;;;14.30;;
73729;SDS011;62036;48.128;16.458;2023-02-28T16:42:58;36.72;;;16.13;;
73729;SDS011;62036;48.128;16.458;2023-02-28T16:45:26;26.83;;;13.43;;
73729;SDS011;62036;48.128;16.458;2023-02-28T16:47:53;38.67;;;16.00;;
73729;SDS011;62036;48.128;16.458;2023-02-28T16:50:23;23.73;;;12.10;;
73729;SDS011;62036;48.128;16.458;2023-02-28T16:52:49;24.25;;;11.40;;
73729;SDS011;62036;48.128;16.458;2023-02-28T16:55:17;22.00;;;11.23;;
73729;SDS011;62036;48.128;16.458;2023-02-28T16:57:43;26.10;;;13.60;;
73729;SDS011;62036;48.128;16.458;2023-02-28T17:00:11;26.00;;;14.20;;
73729;SDS011;62036;48.128;16.458;2023-02-28T17:02:38;26.52;;;13.85;;
73729;SDS011;62036;48.128;16.458;2023-02-28T17:05:04;21.10;;;12.20;;
73729;SDS011;62036;48.128;16.458;2023-02-28T17:07:31;27.58;;;14.50;;
73729;SDS011;62036;48.128;16.458;2023-02-28T17:09:58;24.38;;;15.68;;
73729;SDS011;62036;48.128;16.458;2023-02-28T17:12:26;26.40;;;14.55;;
73729;SDS011;62036;48.128;16.458;2023-02-28T17:14:52;18.40;;;9.30;;
73729;SDS011;62036;48.128;16.458;2023-02-28T17:17:20;18.05;;;10.57;;
73729;SDS011;62036;48.128;16.458;2023-02-28T17:19:47;18.13;;;11.00;;
73729;SDS011;62036;48.128;16.458;2023-02-28T17:22:13;17.55;;;9.88;;
73729;SDS011;62036;48.128;16.458;2023-02-28T17:24:39;16.10;;;10.15;;
73729;SDS011;62036;48.128;16.458;2023-02-28T17:27:05;14.85;;;10.25;;
73729;SDS011;62036;48.128;16.458;2023-02-28T17:29:33;16.33;;;9.82;;
73729;SDS011;62036;48.128;16.458;2023-02-28T17:31:59;15.23;;;8.38;;
73729;SDS011;62036;48.128;16.458;2023-02-28T17:34:25;14.10;;;8.50;;
73729;SDS011;62036;48.128;16.458;2023-02-28T17:36:51;16.92;;;8.68;;
73729;SDS011;62036;48.128;16.458;2023-02-28T17:39:20;14.63;;;9.48;;
73729;SDS011;62036;48.128;16.458;2023-02-28T17:41:52;16.90;;;9.32;;
73729;SDS011;62036;48.128;16.458;2023-02-28T17:44:18;13.80;;;8.90;;
73729;SDS011;62036;48.128;16.458;2023-02-28T17:46:44;13.57;;;7.70;;
73729;SDS011;62036;48.128;16.458;2023-02-28T17:49:10;18.80;;;8.80;;
73729;SDS011;62036;48.128;16.458;2023-02-28T17:51:37;13.23;;;7.70;;
73729;SDS011;62036;48.128;16.458;2023-02-28T17:54:03;12.40;;;7.22;;
73729;SDS011;62036;48.128;16.458;2023-02-28T17:56:30;13.18;;;7.60;;
73729;SDS011;62036;48.128;16.458;2023-02-28T17:58:56;13.00;;;7.65;;
73729;SDS011;62036;48.128;16.458;2023-02-28T18:01:22;14.10;;;6.32;;
73729;SDS011;62036;48.128;16.458;2023-02-28T18:03:51;12.50;;;6.95;;
73729;SDS011;62036;48.128;16.458;2023-02-28T18:06:24;13.40;;;6.63;;
73729;SDS011;62036;48.128;16.458;2023-02-28T18:08:52;13.55;;;7.78;;
73729;SDS011;62036;48.128;16.458;2023-02-28T18:11:18;12.00;;;8.00;;
73729;SDS011;62036;48.128;16.458;2023-02-28T18:13:48;12.77;;;7.65;;
73729;SDS011;62036;48.128;16.458;2023-02-28T18:16:15;10.82;;;7.22;;